Time;durP1;ratioP1;P1;durP2;ratioP2;P2;SDS_P1;SDS_P2;PMS_P1;PMS_P2;Temp;Humidity;BMP_temperature;BMP_pressure;BME280_temperature;BME280_humidity;BME280_pressure;Samples;Min_cycle;Max_cycle;Signal;HPM_P1;HPM_P2
2023/04/02 00:02:22;;;;;;;8.70;3.47;;;9.20;99.90;;;;;;5073536;28;20035;-70
2023/04/02 00:05:29;;;;;;;4.38;3.70;;;8.90;99.90;;;;;;5073188;28;20024;-70
2023/04/02 00:08:03;;;;;;;3.25;2.40;;;8.90;99.90;;;;;;5066616;28;20048;-70
2023/04/02 00:10:47;;;;;;;2.53;1.52;;;8.90;99.90;;;;;;5072390;28;20464;-70
2023/04/02 00:13:21;;;;;;;0.47;0.30;;;8.90;99.90;;;;;;5073438;28;20526;-70
2023/04/02 00:15:49;;;;;;;0.68;0.47;;;9.00;99.90;;;;;;5073514;28;20060;-70
2023/04/02 00:18:20;;;;;;;2.42;1.35;;;9.10;99.90;;;;;;5072278;28;20068;-70
2023/04/02 00:21:07;;;;;;;1.65;1.55;;;9.10;99.90;;;;;;5073336;28;20493;-70
2023/04/02 00:23:37;;;;;;;8.32;3.70;;;9.20;99.90;;;;;;5073096;28;20385;-70
2023/04/02 00:26:18;;;;;;;1.35;1.25;;;9.20;99.90;;;;;;5073439;28;20024;-70
2023/04/02 00:28:44;;;;;;;3.30;2.72;;;9.20;99.90;;;;;;5073465;28;20042;-70
2023/04/02 00:31:11;;;;;;;3.33;2.50;;;9.00;99.90;;;;;;5073136;28;20029;-70
2023/04/02 00:33:37;;;;;;;1.48;1.30;;;9.00;99.90;;;;;;5073153;28;20072;-70
2023/04/02 00:36:06;;;;;;;1.25;1.20;;;9.00;99.90;;;;;;5071562;28;20033;-70
2023/04/02 00:38:34;;;;;;;0.22;0.22;;;9.10;99.90;;;;;;5073065;28;20444;-70
2023/04/02 00:41:03;;;;;;;3.92;1.45;;;9.10;99.90;;;;;;5071796;28;20120;-70
2023/04/02 00:43:37;;;;;;;0.00;0.00;;;9.10;99.90;;;;;;5073097;28;20029;-69
2023/04/02 00:46:14;;;;;;;2.28;0.43;;;9.00;99.90;;;;;;5073034;28;20020;-69
2023/04/02 00:49:09;;;;;;;3.88;2.67;;;8.90;99.90;;;;;;5051761;28;20083;-70
2023/04/02 00:51:43;;;;;;;1.02;0.93;;;8.80;99.90;;;;;;5071027;28;20428;-69
2023/04/02 00:54:14;;;;;;;0.32;0.32;;;8.80;99.90;;;;;;5077243;28;20537;-70
2023/04/02 00:56:44;;;;;;;1.02;0.65;;;8.80;99.90;;;;;;5093195;28;20447;-70
2023/04/02 00:59:25;;;;;;;2.95;1.55;;;8.70;99.90;;;;;;5092810;28;20047;-69
2023/04/02 01:01:55;;;;;;;3.25;2.22;;;8.60;99.90;;;;;;5091548;28;20468;-70
2023/04/02 01:04:33;;;;;;;2.08;1.77;;;8.60;99.90;;;;;;5091900;28;20357;-70
2023/04/02 01:07:07;;;;;;;2.45;1.75;;;8.60;99.90;;;;;;5092677;28;20036;-70
2023/04/02 01:09:36;;;;;;;4.40;2.38;;;8.40;99.90;;;;;;5091690;28;20119;-69
2023/04/02 01:12:25;;;;;;;1.95;1.75;;;8.60;99.90;;;;;;5092752;28;20020;-69
2023/04/02 01:14:53;;;;;;;2.17;1.52;;;8.70;99.90;;;;;;5091744;28;20063;-70
2023/04/02 01:17:49;;;;;;;3.13;1.55;;;8.60;99.90;;;;;;5093203;28;20410;-72
2023/04/02 01:20:46;;;;;;;2.92;2.05;;;8.60;99.90;;;;;;5091395;28;20024;-70
2023/04/02 01:23:38;;;;;;;0.57;0.57;;;8.50;99.90;;;;;;5088616;28;20063;-70
2023/04/02 01:26:11;;;;;;;2.53;1.30;;;8.50;99.90;;;;;;5091375;28;20024;-72
2023/04/02 01:28:49;;;;;;;3.50;2.90;;;8.50;99.90;;;;;;5091207;28;20032;-71
2023/04/02 01:31:15;;;;;;;1.35;1.25;;;8.50;99.90;;;;;;5092941;28;20032;-70
2023/04/02 01:33:41;;;;;;;0.82;0.82;;;8.50;99.90;;;;;;5091354;28;20125;-71
2023/04/02 01:36:07;;;;;;;1.83;1.27;;;8.50;99.90;;;;;;5091069;28;20071;-71
2023/04/02 01:39:01;;;;;;;1.45;0.95;;;8.60;99.90;;;;;;5092434;28;20096;-72
2023/04/02 01:41:36;;;;;;;1.85;1.30;;;8.50;99.90;;;;;;5092778;28;20047;-71
2023/04/02 01:44:08;;;;;;;0.95;0.90;;;8.50;99.90;;;;;;5091242;28;20024;-71
2023/04/02 01:46:37;;;;;;;4.32;2.88;;;8.40;99.90;;;;;;5092641;28;20353;-71
2023/04/02 01:49:12;;;;;;;0.80;0.75;;;8.50;99.90;;;;;;5090980;28;20027;-72
2023/04/02 01:51:42;;;;;;;1.92;1.52;;;8.40;99.90;;;;;;5091149;28;20020;-71
2023/04/02 01:54:09;;;;;;;2.05;1.88;;;8.40;99.90;;;;;;5091274;28;20484;-70
2023/04/02 01:56:35;;;;;;;1.17;0.98;;;8.40;99.90;;;;;;5092580;28;20376;-72
2023/04/02 01:59:04;;;;;;;2.22;2.03;;;8.40;99.90;;;;;;5091162;28;20032;-71
2023/04/02 02:01:56;;;;;;;0.38;0.38;;;8.30;99.90;;;;;;5090987;28;20485;-70
2023/04/02 02:04:21;;;;;;;5.15;2.85;;;8.20;99.90;;;;;;5090491;28;20047;-72
2023/04/02 02:06:48;;;;;;;1.50;1.40;;;8.20;99.90;;;;;;5091054;28;20036;-70
2023/04/02 02:09:21;;;;;;;0.52;0.52;;;8.10;99.90;;;;;;5074147;28;20024;-72
2023/04/02 02:11:49;;;;;;;0.38;0.32;;;8.10;99.90;;;;;;5090844;28;20444;-71
2023/04/02 02:14:27;;;;;;;3.15;2.65;;;8.10;99.90;;;;;;5092288;28;20040;-72
2023/04/02 02:17:00;;;;;;;0.55;0.30;;;8.20;99.90;;;;;;5091099;28;20048;-71
2023/04/02 02:19:35;;;;;;;2.45;2.28;;;8.20;99.90;;;;;;5090792;28;20031;-71
2023/04/02 02:22:26;;;;;;;4.55;2.88;;;8.20;99.90;;;;;;5088478;28;20468;-72
2023/04/02 02:24:53;;;;;;;3.05;2.80;;;8.30;99.90;;;;;;5092153;28;20510;-70
2023/04/02 02:27:22;;;;;;;4.22;2.97;;;8.20;99.90;;;;;;5092607;28;20016;-70
2023/04/02 02:30:14;;;;;;;2.75;2.00;;;8.20;99.90;;;;;;5094557;28;20549;-70
2023/04/02 02:32:54;;;;;;;6.22;0.73;;;8.10;99.90;;;;;;5094516;28;20024;-70
2023/04/02 02:35:30;;;;;;;0.73;0.73;;;8.00;99.90;;;;;;5094402;28;20047;-70
2023/04/02 02:38:24;;;;;;;1.95;0.52;;;8.10;99.90;;;;;;5094373;28;20032;-69
2023/04/02 02:40:55;;;;;;;4.13;3.00;;;8.10;99.90;;;;;;5093995;28;20124;-70
2023/04/02 02:43:21;;;;;;;2.60;1.70;;;8.00;99.90;;;;;;5094461;28;20071;-70
2023/04/02 02:45:48;;;;;;;0.93;0.93;;;7.90;99.90;;;;;;5095408;28;20428;-70
2023/04/02 02:48:20;;;;;;;3.15;2.78;;;7.90;99.90;;;;;;5094045;28;20452;-69
2023/04/02 02:50:47;;;;;;;0.20;0.20;;;8.00;99.90;;;;;;5094070;28;20499;-70
2023/04/02 02:53:23;;;;;;;1.50;1.38;;;8.10;99.90;;;;;;5095366;28;20032;-69
2023/04/02 02:55:57;;;;;;;2.33;1.23;;;8.10;99.90;;;;;;5094156;28;20027;-70
2023/04/02 02:58:30;;;;;;;1.98;1.88;;;7.90;99.90;;;;;;5094203;28;20024;-70
2023/04/02 03:01:10;;;;;;;3.25;2.50;;;7.90;99.90;;;;;;5093646;28;20028;-70
2023/04/02 03:03:39;;;;;;;4.32;2.92;;;8.00;99.90;;;;;;5086084;28;20028;-70
2023/04/02 03:06:09;;;;;;;3.42;1.73;;;8.00;99.90;;;;;;5094018;28;20028;-69
2023/04/02 03:08:44;;;;;;;7.25;3.20;;;8.00;99.90;;;;;;5094008;28;20028;-69
2023/04/02 03:11:31;;;;;;;4.40;1.90;;;7.90;99.90;;;;;;5093843;28;20429;-69
2023/04/02 03:14:08;;;;;;;1.80;1.13;;;8.00;99.90;;;;;;5093461;28;20035;-69
2023/04/02 03:16:41;;;;;;;4.63;1.70;;;7.90;99.90;;;;;;5093660;28;20024;-69
2023/04/02 03:19:25;;;;;;;4.38;3.80;;;7.90;99.90;;;;;;5093476;28;20032;-69
2023/04/02 03:22:07;;;;;;;4.65;3.13;;;7.90;99.90;;;;;;5093663;28;20020;-69
2023/04/02 03:25:00;;;;;;;3.92;3.35;;;7.80;99.90;;;;;;5093794;28;20077;-70
2023/04/02 03:27:33;;;;;;;3.50;1.52;;;7.80;99.90;;;;;;5093304;28;20438;-69
2023/04/02 03:30:13;;;;;;;0.32;0.32;;;7.80;99.90;;;;;;5093414;28;20484;-70
2023/04/02 03:32:42;;;;;;;3.72;2.38;;;7.90;99.90;;;;;;5094689;28;20498;-70
2023/04/02 03:35:14;;;;;;;1.63;1.52;;;7.80;99.90;;;;;;5093268;28;20024;-70
2023/04/02 03:37:46;;;;;;;1.50;1.27;;;7.80;99.90;;;;;;5092721;28;20028;-70
2023/04/02 03:40:30;;;;;;;1.50;1.40;;;7.90;99.90;;;;;;5092837;28;20093;-70
2023/04/02 03:43:05;;;;;;;2.72;1.85;;;7.80;99.90;;;;;;5094463;28;20467;-69
2023/04/02 03:45:38;;;;;;;1.10;1.10;;;7.70;99.90;;;;;;5075990;28;20111;-69
2023/04/02 03:48:07;;;;;;;3.95;2.83;;;7.70;99.90;;;;;;5076142;28;20024;-70
2023/04/02 03:50:52;;;;;;;1.92;1.45;;;7.90;99.90;;;;;;5092833;28;20028;-70
2023/04/02 03:53:23;;;;;;;1.45;1.30;;;8.00;99.90;;;;;;5093123;28;20028;-70
2023/04/02 03:55:51;;;;;;;1.50;0.73;;;8.00;99.90;;;;;;5092994;28;20114;-70
2023/04/02 03:58:22;;;;;;;6.32;2.65;;;8.00;99.90;;;;;;5092944;28;20063;-70
2023/04/02 04:00:58;;;;;;;1.95;1.85;;;8.00;99.90;;;;;;5092366;28;20116;-70
2023/04/02 04:03:42;;;;;;;2.92;1.85;;;7.90;99.90;;;;;;5092613;28;20073;-70
2023/04/02 04:06:31;;;;;;;1.30;1.15;;;7.90;99.90;;;;;;5092632;28;20024;-70
2023/04/02 04:09:22;;;;;;;3.47;2.20;;;7.80;99.90;;;;;;5092490;28;20032;-69
2023/04/02 04:11:55;;;;;;;3.08;0.82;;;7.70;99.90;;;;;;5092567;28;20089;-70
2023/04/02 04:14:31;;;;;;;1.90;1.17;;;7.80;99.90;;;;;;5093534;28;20050;-70
2023/04/02 04:17:16;;;;;;;3.10;2.80;;;7.80;99.90;;;;;;5092465;28;20111;-70
2023/04/02 04:20:20;;;;;;;2.00;1.88;;;7.80;99.90;;;;;;5092599;28;20020;-70
2023/04/02 04:22:49;;;;;;;3.72;1.85;;;7.70;99.90;;;;;;5093871;28;20109;-70
2023/04/02 04:25:32;;;;;;;5.70;2.70;;;7.70;99.90;;;;;;5075951;28;20128;-70
2023/04/02 04:28:23;;;;;;;2.38;2.17;;;7.50;99.90;;;;;;5075877;28;20028;-71
2023/04/02 04:30:58;;;;;;;9.63;3.20;;;7.50;99.90;;;;;;5092392;28;20031;-69
2023/04/02 04:33:39;;;;;;;0.95;0.95;;;7.40;99.90;;;;;;5092211;28;20067;-70
2023/04/02 04:36:28;;;;;;;4.97;2.10;;;7.40;99.90;;;;;;5091992;28;20020;-69
2023/04/02 04:39:06;;;;;;;3.65;1.95;;;7.40;99.90;;;;;;5091816;28;20036;-70
2023/04/02 04:41:38;;;;;;;3.95;2.28;;;7.40;99.90;;;;;;5092151;28;20024;-71
2023/04/02 04:44:33;;;;;;;7.45;2.95;;;7.50;99.90;;;;;;5091582;28;20035;-70
2023/04/02 04:47:12;;;;;;;6.13;2.47;;;7.50;99.90;;;;;;5077072;28;20119;-71
2023/04/02 04:49:55;;;;;;;1.60;1.50;;;7.50;99.90;;;;;;5091426;28;20040;-71
2023/04/02 04:52:26;;;;;;;0.60;0.60;;;7.50;99.90;;;;;;5091935;28;20487;-70
2023/04/02 04:54:52;;;;;;;3.00;2.65;;;7.50;99.90;;;;;;5093009;28;20044;-70
2023/04/02 04:57:34;;;;;;;2.50;2.03;;;7.40;99.90;;;;;;5091522;28;20065;-70
2023/04/02 05:00:13;;;;;;;3.22;1.10;;;7.30;99.90;;;;;;5063854;28;20107;-70
2023/04/02 05:02:51;;;;;;;7.20;2.75;;;7.40;99.90;;;;;;5091673;28;20028;-69
2023/04/02 05:05:26;;;;;;;9.68;3.33;;;7.40;99.90;;;;;;5091487;28;20035;-70
2023/04/02 05:07:59;;;;;;;2.85;1.42;;;7.40;99.90;;;;;;5091623;28;20035;-70
2023/04/02 05:10:45;;;;;;;5.03;2.50;;;7.50;99.90;;;;;;5091684;28;20032;-69
2023/04/02 05:13:40;;;;;;;2.88;1.67;;;7.40;99.90;;;;;;5091114;28;20036;-69
2023/04/02 05:16:16;;;;;;;5.13;1.30;;;7.40;99.90;;;;;;5091702;28;20020;-69
2023/04/02 05:18:51;;;;;;;0.50;0.50;;;7.40;99.90;;;;;;5091352;28;20023;-69
2023/04/02 05:21:32;;;;;;;7.18;4.97;;;7.40;99.90;;;;;;5091574;28;20027;-70
2023/04/02 05:24:30;;;;;;;1.00;0.65;;;7.50;99.90;;;;;;5091087;28;20050;-70
2023/04/02 05:27:03;;;;;;;2.42;1.85;;;7.40;99.90;;;;;;5092755;28;20028;-69
2023/04/02 05:29:37;;;;;;;0.65;0.65;;;7.30;99.90;;;;;;5092786;28;20024;-69
2023/04/02 05:32:19;;;;;;;0.90;0.68;;;7.30;99.90;;;;;;5074740;28;20027;-69
2023/04/02 05:34:53;;;;;;;1.42;1.33;;;7.30;99.90;;;;;;5091493;28;20488;-70
2023/04/02 05:37:25;;;;;;;5.97;3.20;;;7.30;99.90;;;;;;5091149;28;20028;-70
2023/04/02 05:39:56;;;;;;;1.52;1.10;;;7.20;99.90;;;;;;5091093;28;20032;-69
2023/04/02 05:42:28;;;;;;;0.93;0.93;;;7.30;99.90;;;;;;5090990;28;20414;-70
2023/04/02 05:45:13;;;;;;;2.63;1.80;;;7.40;99.90;;;;;;5090840;28;20118;-70
2023/04/02 05:47:42;;;;;;;1.90;1.25;;;7.20;99.90;;;;;;5091193;28;20035;-70
2023/04/02 05:50:22;;;;;;;2.33;1.13;;;7.20;99.90;;;;;;5090929;28;20027;-69
2023/04/02 05:52:55;;;;;;;4.38;2.60;;;7.20;99.90;;;;;;5090702;28;20077;-69
2023/04/02 05:56:00;;;;;;;4.55;4.13;;;7.20;99.90;;;;;;5090290;28;20051;-69
2023/04/02 05:58:40;;;;;;;1.73;1.63;;;7.10;99.90;;;;;;5074809;28;20024;-70
2023/04/02 06:01:40;;;;;;;4.05;2.65;;;7.10;99.90;;;;;;5092632;28;20040;-69
2023/04/02 06:04:33;;;;;;;1.50;1.42;;;7.20;99.90;;;;;;5095017;28;20028;-69
2023/04/02 06:07:16;;;;;;;4.15;2.97;;;7.00;99.90;;;;;;5095109;28;20387;-70
2023/04/02 06:09:59;;;;;;;4.32;1.83;;;7.00;99.90;;;;;;5094776;28;20039;-70
2023/04/02 06:12:51;;;;;;;1.55;1.40;;;7.10;99.90;;;;;;5094851;28;20028;-69
2023/04/02 06:15:21;;;;;;;12.50;3.50;;;6.90;99.90;;;;;;5067074;28;20354;-70
2023/04/02 06:17:57;;;;;;;3.40;1.95;;;7.00;99.90;;;;;;5076822;28;20107;-70
2023/04/02 06:20:23;;;;;;;0.30;0.30;;;7.10;99.90;;;;;;5057012;28;20051;-70
2023/04/02 06:23:05;;;;;;;1.23;1.13;;;7.10;99.90;;;;;;5080602;28;20361;-70
2023/04/02 06:25:41;;;;;;;1.05;1.05;;;7.10;99.90;;;;;;5079601;28;20020;-70
2023/04/02 06:28:16;;;;;;;3.15;2.42;;;7.20;99.90;;;;;;5077768;28;20033;-71
2023/04/02 06:30:54;;;;;;;16.48;5.47;;;7.20;99.90;;;;;;5078333;28;20020;-70
2023/04/02 06:33:20;;;;;;;0.43;0.43;;;7.10;99.90;;;;;;5079840;28;20039;-70
2023/04/02 06:35:50;;;;;;;2.72;2.03;;;7.10;99.90;;;;;;5058326;28;20581;-69
2023/04/02 06:38:28;;;;;;;10.45;4.95;;;7.10;99.90;;;;;;5079308;28;20115;-70
2023/04/02 06:41:03;;;;;;;1.35;1.25;;;7.10;99.90;;;;;;5070715;28;20024;-70
2023/04/02 06:43:54;;;;;;;3.65;1.88;;;7.20;99.90;;;;;;5079552;28;20111;-69
2023/04/02 06:46:42;;;;;;;8.70;3.88;;;7.00;99.90;;;;;;5061627;28;20056;-72
2023/04/02 06:49:20;;;;;;;1.77;1.58;;;6.80;99.90;;;;;;5062138;28;20020;-70
2023/04/02 06:51:50;;;;;;;1.42;1.33;;;6.70;99.90;;;;;;5075717;28;20511;-69
2023/04/02 06:54:17;;;;;;;0.80;0.73;;;6.80;99.90;;;;;;5072881;28;20123;-69
2023/04/02 06:56:50;;;;;;;0.82;0.63;;;6.80;99.90;;;;;;5062450;28;20380;-69
2023/04/02 06:59:23;;;;;;;0.90;0.80;;;6.80;99.90;;;;;;5080263;28;20031;-72
2023/04/02 07:02:02;;;;;;;1.08;1.08;;;6.80;99.90;;;;;;5080314;28;20502;-69
2023/04/02 07:04:28;;;;;;;5.35;3.53;;;6.80;99.90;;;;;;5092759;28;20036;-69
2023/04/02 07:06:54;;;;;;;3.90;3.53;;;6.80;99.90;;;;;;5093040;28;20016;-72
2023/04/02 07:09:24;;;;;;;0.40;0.40;;;6.80;99.90;;;;;;5092754;28;20024;-70
2023/04/02 07:11:53;;;;;;;0.90;0.73;;;6.70;99.90;;;;;;5093064;28;20161;-69
2023/04/02 07:14:19;;;;;;;1.70;1.60;;;7.00;99.90;;;;;;5084479;28;20035;-69
2023/04/02 07:16:45;;;;;;;3.53;1.65;;;7.00;99.90;;;;;;5076579;28;20021;-69
2023/04/02 07:19:20;;;;;;;0.90;0.85;;;7.00;99.90;;;;;;5072918;28;20082;-69
2023/04/02 07:21:48;;;;;;;2.15;1.27;;;7.10;99.90;;;;;;5071679;28;20031;-69
2023/04/02 07:24:14;;;;;;;0.25;0.22;;;7.00;99.90;;;;;;5072789;28;20055;-68
2023/04/02 07:26:40;;;;;;;0.10;0.10;;;7.00;99.90;;;;;;5072993;28;20639;-69
2023/04/02 07:29:08;;;;;;;2.40;1.85;;;7.20;99.90;;;;;;5067369;28;20032;-69
2023/04/02 07:31:33;;;;;;;3.25;2.85;;;7.00;99.90;;;;;;5064235;28;20025;-69
2023/04/02 07:33:59;;;;;;;1.70;1.58;;;6.90;99.90;;;;;;5061642;28;20087;-71
2023/04/02 07:36:27;;;;;;;6.50;1.30;;;6.80;99.90;;;;;;5061054;28;20017;-71
2023/04/02 07:38:53;;;;;;;5.50;2.15;;;6.90;99.90;;;;;;5057384;28;20028;-71
2023/04/02 07:41:20;;;;;;;1.55;1.45;;;7.00;99.90;;;;;;5067468;28;20029;-70
2023/04/02 07:43:46;;;;;;;0.63;0.63;;;6.90;99.90;;;;;;5053846;28;20037;-70
2023/04/02 07:46:15;;;;;;;1.27;1.10;;;7.00;99.90;;;;;;5071044;28;20028;-70
2023/04/02 07:48:41;;;;;;;6.68;2.35;;;7.10;99.90;;;;;;5072149;28;20032;-70
2023/04/02 07:51:23;;;;;;;4.05;1.00;;;7.10;99.90;;;;;;5066621;28;20122;-69
2023/04/02 07:53:49;;;;;;;2.37;1.27;;;7.00;99.90;;;;;;5073844;28;20045;-69
2023/04/02 07:56:19;;;;;;;1.25;1.20;;;7.10;99.90;;;;;;5073771;28;20082;-69
2023/04/02 07:58:45;;;;;;;1.25;1.02;;;7.10;99.90;;;;;;5072862;28;20025;-69
2023/04/02 08:01:16;;;;;;;0.10;0.10;;;6.90;99.90;;;;;;5072407;28;20043;-69
2023/04/02 08:03:41;;;;;;;2.13;1.45;;;6.90;99.90;;;;;;5092375;28;20115;-69
2023/04/02 08:06:07;;;;;;;0.68;0.68;;;6.90;99.90;;;;;;5092598;28;20115;-69
2023/04/02 08:08:33;;;;;;;0.95;0.63;;;6.90;99.90;;;;;;5092763;28;20038;-69
2023/04/02 08:10:59;;;;;;;5.50;2.72;;;7.00;99.90;;;;;;5093835;28;20036;-69
2023/04/02 08:13:25;;;;;;;3.20;1.80;;;6.90;99.90;;;;;;5074599;28;20469;-69
2023/04/02 08:15:50;;;;;;;0.00;0.00;;;7.00;99.90;;;;;;5065928;28;20074;-69
2023/04/02 08:18:16;;;;;;;1.52;1.05;;;7.10;99.90;;;;;;5058502;28;20408;-69
2023/04/02 08:20:42;;;;;;;0.45;0.45;;;7.10;99.90;;;;;;5060748;28;20029;-69
2023/04/02 08:23:16;;;;;;;1.95;1.65;;;7.00;99.90;;;;;;5054768;28;20025;-69
2023/04/02 08:25:43;;;;;;;0.20;0.20;;;6.90;99.90;;;;;;5054317;28;20056;-69
2023/04/02 08:28:08;;;;;;;1.95;1.42;;;6.90;99.90;;;;;;5053450;28;20021;-69
2023/04/02 08:30:34;;;;;;;1.38;0.77;;;7.00;99.90;;;;;;5067009;28;20041;-69
2023/04/02 08:33:00;;;;;;;0.13;0.13;;;7.00;99.90;;;;;;5070705;28;20035;-69
2023/04/02 08:35:26;;;;;;;4.45;2.72;;;7.00;99.90;;;;;;5066158;28;20024;-70
2023/04/02 08:37:52;;;;;;;3.78;2.42;;;6.80;99.90;;;;;;5067434;28;20028;-70
2023/04/02 08:40:28;;;;;;;0.63;0.63;;;6.80;99.90;;;;;;5067465;28;20048;-71
2023/04/02 08:43:36;;;;;;;1.80;1.30;;;7.00;99.90;;;;;;5064346;28;20024;-70
2023/04/02 08:46:44;;;;;;;0.73;0.73;;;6.90;99.90;;;;;;5068330;28;20021;-70
2023/04/02 08:49:26;;;;;;;1.02;0.95;;;6.90;99.90;;;;;;5037241;28;20036;-71
2023/04/02 08:51:52;;;;;;;8.05;3.10;;;7.00;99.90;;;;;;5023702;28;20040;-70
2023/04/02 08:54:21;;;;;;;1.70;1.20;;;7.10;99.90;;;;;;5057664;28;20106;-71
2023/04/02 08:57:06;;;;;;;2.17;1.85;;;7.20;99.90;;;;;;5072293;28;20027;-71
2023/04/02 08:59:38;;;;;;;2.30;1.42;;;7.30;99.90;;;;;;5050772;28;20535;-70
2023/04/02 09:02:42;;;;;;;5.35;0.43;;;7.30;99.90;;;;;;5065875;28;20028;-70
2023/04/02 09:05:17;;;;;;;1.33;0.77;;;7.10;99.90;;;;;;5091402;28;20110;-70
2023/04/02 09:07:45;;;;;;;1.45;1.30;;;7.00;99.90;;;;;;5092950;28;20020;-69
2023/04/02 09:10:18;;;;;;;0.85;0.85;;;7.00;99.90;;;;;;5091242;28;20072;-70
2023/04/02 09:12:50;;;;;;;0.35;0.35;;;7.00;99.90;;;;;;5091479;28;20498;-70
2023/04/02 09:15:28;;;;;;;0.47;0.47;;;7.10;99.90;;;;;;5063891;28;20043;-70
2023/04/02 09:18:05;;;;;;;1.27;0.98;;;7.30;99.90;;;;;;5072147;28;20469;-70
2023/04/02 09:20:31;;;;;;;1.02;0.60;;;7.40;99.90;;;;;;5071981;28;20052;-70
2023/04/02 09:22:57;;;;;;;0.68;0.68;;;7.60;99.90;;;;;;5072550;28;20025;-69
2023/04/02 09:25:26;;;;;;;0.15;0.15;;;7.80;99.90;;;;;;5074184;28;20039;-69
2023/04/02 09:27:54;;;;;;;0.05;0.05;;;7.80;99.90;;;;;;5076298;28;20080;-70
2023/04/02 09:31:01;;;;;;;3.58;1.85;;;7.80;99.90;;;;;;5079032;28;20560;-70
2023/04/02 09:33:41;;;;;;;1.52;1.42;;;7.80;99.90;;;;;;5075458;28;20032;-70
2023/04/02 09:36:25;;;;;;;5.13;2.47;;;7.60;99.90;;;;;;5071862;28;20032;-69
2023/04/02 09:39:17;;;;;;;13.85;4.40;;;7.60;99.90;;;;;;5078524;28;20369;-68
2023/04/02 09:41:45;;;;;;;1.60;1.50;;;7.70;99.90;;;;;;5089396;28;20040;-70
2023/04/02 09:44:25;;;;;;;2.22;2.05;;;7.70;99.90;;;;;;5085641;28;20024;-69
2023/04/02 09:47:03;;;;;;;0.85;0.85;;;7.50;99.90;;;;;;5078514;28;20043;-69
2023/04/02 09:49:31;;;;;;;0.73;0.73;;;7.30;99.90;;;;;;5076625;28;20430;-68
2023/04/02 09:52:18;;;;;;;1.70;1.38;;;7.40;99.90;;;;;;5079714;28;20396;-69
2023/04/02 09:54:45;;;;;;;0.63;0.63;;;7.40;99.90;;;;;;5083492;28;20422;-69
2023/04/02 09:57:31;;;;;;;0.35;0.35;;;7.50;99.90;;;;;;5078553;28;20384;-69
2023/04/02 10:00:26;;;;;;;0.98;0.90;;;7.60;99.90;;;;;;5078226;28;20043;-67
2023/04/02 10:03:21;;;;;;;5.25;1.20;;;7.60;99.90;;;;;;5077704;28;20028;-69
2023/04/02 10:05:48;;;;;;;1.88;0.75;;;7.50;99.90;;;;;;5060750;28;20127;-68
2023/04/02 10:08:26;;;;;;;4.13;1.15;;;7.60;99.90;;;;;;5077898;28;20024;-69
2023/04/02 10:10:58;;;;;;;7.07;2.83;;;7.50;99.90;;;;;;5078518;28;20024;-70
2023/04/02 10:13:47;;;;;;;1.92;1.25;;;7.40;99.90;;;;;;5075308;28;20027;-71
2023/04/02 10:16:31;;;;;;;0.20;0.20;;;7.30;99.90;;;;;;5062524;28;20033;-71
2023/04/02 10:19:20;;;;;;;1.13;1.02;;;7.50;99.90;;;;;;5074477;28;20039;-70
2023/04/02 10:21:48;;;;;;;1.38;1.27;;;7.70;99.90;;;;;;5057288;28;20032;-71
2023/04/02 10:24:15;;;;;;;0.35;0.35;;;7.60;99.90;;;;;;5075220;28;20013;-70
2023/04/02 10:27:01;;;;;;;0.00;0.00;;;7.50;99.90;;;;;;5071842;28;20233;-70
2023/04/02 10:29:40;;;;;;;0.20;0.20;;;7.70;99.90;;;;;;5066582;28;20037;-71
2023/04/02 10:32:20;;;;;;;4.88;4.43;;;7.60;99.90;;;;;;5066699;28;20436;-70
2023/04/02 10:34:56;;;;;;;0.43;0.43;;;7.60;99.90;;;;;;5071982;28;20083;-70
2023/04/02 10:38:03;;;;;;;0.32;0.30;;;7.70;99.90;;;;;;5069923;28;20117;-69
2023/04/02 10:40:55;;;;;;;1.35;0.95;;;7.70;99.90;;;;;;5068555;28;20045;-69
2023/04/02 10:43:27;;;;;;;0.30;0.25;;;7.90;99.90;;;;;;5075125;28;20028;-69
2023/04/02 10:45:53;;;;;;;;;;;8.00;99.90;;;;;;5074990;28;20025;-72
2023/04/02 10:48:29;;;;;;;0.73;0.73;;;8.00;99.90;;;;;;5074212;28;19962;-71
2023/04/02 10:51:32;;;;;;;0.38;0.35;;;8.00;99.90;;;;;;5074951;28;20047;-71
2023/04/02 10:54:20;;;;;;;0.85;0.82;;;7.90;99.90;;;;;;5076390;28;20041;-71
2023/04/02 10:56:48;;;;;;;0.30;0.30;;;7.90;99.90;;;;;;5062463;28;20063;-72
2023/04/02 10:59:23;;;;;;;0.52;0.52;;;7.80;99.90;;;;;;5074852;28;20043;-72
2023/04/02 11:01:52;;;;;;;1.95;0.80;;;7.80;99.90;;;;;;5065555;28;20471;-70
2023/04/02 11:04:34;;;;;;;0.60;0.60;;;7.70;99.90;;;;;;5094428;28;20036;-70
2023/04/02 11:07:06;;;;;;;1.33;0.60;;;7.70;99.90;;;;;;5074955;28;20036;-70
2023/04/02 11:09:37;;;;;;;11.50;0.90;;;7.70;99.90;;;;;;5074514;28;20051;-70
2023/04/02 11:12:04;;;;;;;;;;;7.80;99.90;;;;;;5075052;28;20037;-71
2023/04/02 11:14:31;;;;;;;0.10;0.10;;;7.80;99.90;;;;;;5064270;28;19923;-71
2023/04/02 11:17:01;;;;;;;0.15;0.10;;;7.90;99.90;;;;;;5068052;28;20029;-70
2023/04/02 11:19:32;;;;;;;0.30;0.30;;;7.90;99.90;;;;;;5070267;28;20043;-69
2023/04/02 11:22:20;;;;;;;0.10;0.10;;;7.80;99.90;;;;;;5080064;28;20071;-70
2023/04/02 11:25:20;;;;;;;0.10;0.08;;;7.90;99.90;;;;;;5076087;28;20016;-70
2023/04/02 11:27:47;;;;;;;4.65;0.80;;;7.90;99.90;;;;;;5074394;28;20028;-69
2023/04/02 11:30:18;;;;;;;1.65;0.52;;;7.80;99.90;;;;;;5072803;28;20115;-70
2023/04/02 11:32:48;;;;;;;1.75;0.30;;;7.80;99.90;;;;;;5067666;28;20021;-70
2023/04/02 11:35:23;;;;;;;0.10;0.10;;;7.90;99.90;;;;;;5075223;28;20089;-71
2023/04/02 11:37:49;;;;;;;0.80;0.80;;;8.10;99.90;;;;;;5078108;28;20103;-70
2023/04/02 11:40:15;;;;;;;0.00;0.00;;;7.90;99.90;;;;;;5075476;28;20094;-69
2023/04/02 11:42:46;;;;;;;0.52;0.52;;;7.80;99.90;;;;;;5076357;28;20032;-69
2023/04/02 11:45:27;;;;;;;1.40;0.67;;;8.00;99.90;;;;;;5085347;28;20024;-70
2023/04/02 11:48:07;;;;;;;1.38;0.80;;;8.40;99.90;;;;;;5078027;28;20283;-70
2023/04/02 11:50:36;;;;;;;0.00;0.00;;;8.40;99.90;;;;;;5078913;28;20374;-70
2023/04/02 11:53:13;;;;;;;0.28;0.28;;;8.80;99.90;;;;;;5073064;28;20395;-69
2023/04/02 11:55:44;;;;;;;0.10;0.10;;;8.80;99.90;;;;;;5082301;28;20452;-69
2023/04/02 11:58:38;;;;;;;0.25;0.25;;;8.60;99.90;;;;;;5079561;28;20107;-70
2023/04/02 12:01:38;;;;;;;0.00;0.00;;;8.40;99.90;;;;;;5072115;28;20024;-69
2023/04/02 12:04:22;;;;;;;0.45;0.45;;;8.50;99.90;;;;;;5082072;28;20111;-69
2023/04/02 12:07:09;;;;;;;0.20;0.20;;;8.00;99.90;;;;;;5087977;28;20032;-70
2023/04/02 12:09:44;;;;;;;0.20;0.20;;;7.70;99.90;;;;;;5081643;28;20127;-70
2023/04/02 12:12:34;;;;;;;1.17;1.08;;;7.90;99.90;;;;;;5070036;28;20036;-69
2023/04/02 12:15:00;;;;;;;0.10;0.10;;;7.90;99.90;;;;;;5062729;28;20043;-69
2023/04/02 12:17:37;;;;;;;1.35;1.20;;;7.80;99.90;;;;;;5077174;28;20028;-69
2023/04/02 12:20:07;;;;;;;0.28;0.28;;;7.80;99.90;;;;;;5069972;28;20384;-70
2023/04/02 12:22:36;;;;;;;0.80;0.47;;;7.70;99.90;;;;;;5071483;28;20108;-69
2023/04/02 12:25:28;;;;;;;0.30;0.30;;;7.70;99.90;;;;;;5072785;28;20034;-70
2023/04/02 12:28:09;;;;;;;2.20;0.80;;;7.70;99.90;;;;;;5065784;28;20116;-69
2023/04/02 12:30:35;;;;;;;0.85;0.55;;;7.50;99.90;;;;;;5068432;28;20029;-72
2023/04/02 12:33:38;;;;;;;0.10;0.10;;;7.50;99.90;;;;;;5072356;28;20025;-71
2023/04/02 12:36:21;;;;;;;0.20;0.20;;;7.50;99.90;;;;;;5034198;28;20040;-72
2023/04/02 12:38:46;;;;;;;0.50;0.50;;;7.50;99.90;;;;;;5068080;28;20139;-72
2023/04/02 12:41:28;;;;;;;0.10;0.10;;;7.50;99.90;;;;;;5072708;28;20111;-72
2023/04/02 12:44:15;;;;;;;6.35;1.10;;;7.40;99.90;;;;;;5071263;28;20059;-72
2023/04/02 12:46:41;;;;;;;0.65;0.65;;;7.50;99.90;;;;;;5072943;28;20115;-72
2023/04/02 12:49:30;;;;;;;0.50;0.50;;;7.40;99.90;;;;;;5071119;28;20021;-72
2023/04/02 12:51:56;;;;;;;1.33;1.15;;;7.50;99.90;;;;;;5071266;28;20029;-72
2023/04/02 12:54:22;;;;;;;1.13;0.70;;;7.50;99.90;;;;;;5070638;28;20039;-72
2023/04/02 12:56:49;;;;;;;1.55;1.20;;;7.50;99.90;;;;;;5072124;28;20021;-72
2023/04/02 12:59:35;;;;;;;0.00;0.00;;;7.70;99.90;;;;;;5072026;28;20024;-72
2023/04/02 13:02:20;;;;;;;2.30;1.00;;;7.50;99.90;;;;;;5074916;28;20023;-72
2023/04/02 13:04:51;;;;;;;0.70;0.70;;;7.40;99.90;;;;;;5091493;28;20544;-72
2023/04/02 13:07:20;;;;;;;1.30;1.20;;;7.40;99.90;;;;;;5092759;28;20111;-72
2023/04/02 13:09:51;;;;;;;0.47;0.47;;;7.30;99.90;;;;;;5091735;28;20044;-72
2023/04/02 13:12:32;;;;;;;0.38;0.38;;;7.40;99.90;;;;;;5091124;28;20031;-72
2023/04/02 13:15:00;;;;;;;1.30;0.98;;;7.40;99.90;;;;;;5091563;28;20043;-72
2023/04/02 13:17:45;;;;;;;0.52;0.52;;;7.40;99.90;;;;;;5092671;28;20091;-72
2023/04/02 13:20:38;;;;;;;0.57;0.57;;;7.40;99.90;;;;;;5092644;28;20078;-72
2023/04/02 13:23:22;;;;;;;0.77;0.77;;;7.40;99.90;;;;;;5091283;28;20493;-72
2023/04/02 13:25:49;;;;;;;3.10;0.43;;;7.60;99.90;;;;;;5092394;28;20415;-72
2023/04/02 13:28:15;;;;;;;0.60;0.60;;;7.60;99.90;;;;;;5091551;28;20031;-72
2023/04/02 13:30:41;;;;;;;0.10;0.10;;;7.80;99.90;;;;;;5092382;28;20099;-71
2023/04/02 13:33:06;;;;;;;0.00;0.00;;;8.00;99.90;;;;;;5091314;28;20416;-72
2023/04/02 13:35:32;;;;;;;0.82;0.82;;;8.20;99.90;;;;;;5090382;28;20071;-72
2023/04/02 13:38:01;;;;;;;0.35;0.35;;;8.10;99.90;;;;;;5084784;28;20090;-72
2023/04/02 13:40:27;;;;;;;2.92;1.08;;;7.90;99.90;;;;;;5070506;28;20196;-72
2023/04/02 13:42:53;;;;;;;1.83;1.60;;;7.90;99.90;;;;;;5071920;28;20020;-72
2023/04/02 13:45:37;;;;;;;0.75;0.55;;;7.80;99.90;;;;;;5070883;28;20119;-72